sensor_id;sensor_type;location;lat;lon;timestamp;P1;durP1;ratioP1;P2;durP2;ratioP2
19804;SDS011;10062;51.052;13.756;2022-07-11T00:00:42;5.17;;;1.20;;
19804;SDS011;10062;51.052;13.756;2022-07-11T00:03:14;5.67;;;1.37;;
19804;SDS011;10062;51.052;13.756;2022-07-11T00:05:47;6.00;;;1.40;;
19804;SDS011;10062;51.052;13.756;2022-07-11T00:08:18;3.67;;;1.47;;
19804;SDS011;10062;51.052;13.756;2022-07-11T00:10:50;7.17;;;1.23;;
19804;SDS011;10062;51.052;13.756;2022-07-11T00:13:22;3.53;;;1.10;;
19804;SDS011;10062;51.052;13.756;2022-07-11T00:15:54;6.70;;;1.33;;
19804;SDS011;10062;51.052;13.756;2022-07-11T00:18:25;2.63;;;0.97;;
19804;SDS011;10062;51.052;13.756;2022-07-11T00:20:58;3.50;;;1.30;;
19804;SDS011;10062;51.052;13.756;2022-07-11T00:23:30;5.43;;;1.23;;
19804;SDS011;10062;51.052;13.756;2022-07-11T00:26:02;3.30;;;1.00;;
19804;SDS011;10062;51.052;13.756;2022-07-11T00:28:33;5.40;;;1.27;;
19804;SDS011;10062;51.052;13.756;2022-07-11T00:31:05;7.93;;;1.50;;
19804;SDS011;10062;51.052;13.756;2022-07-11T00:33:38;5.47;;;1.50;;
19804;SDS011;10062;51.052;13.756;2022-07-11T00:36:11;5.53;;;1.20;;
19804;SDS011;10062;51.052;13.756;2022-07-11T00:38:43;4.93;;;1.30;;
19804;SDS011;10062;51.052;13.756;2022-07-11T00:41:15;5.90;;;1.30;;
19804;SDS011;10062;51.052;13.756;2022-07-11T00:43:50;5.77;;;1.40;;
19804;SDS011;10062;51.052;13.756;2022-07-11T00:46:23;2.93;;;1.10;;
19804;SDS011;10062;51.052;13.756;2022-07-11T00:48:56;4.63;;;1.70;;
19804;SDS011;10062;51.052;13.756;2022-07-11T00:51:29;2.57;;;1.13;;
19804;SDS011;10062;51.052;13.756;2022-07-11T00:54:02;3.77;;;1.77;;
19804;SDS011;10062;51.052;13.756;2022-07-11T00:56:33;3.40;;;1.20;;
19804;SDS011;10062;51.052;13.756;2022-07-11T00:59:05;5.17;;;1.20;;
19804;SDS011;10062;51.052;13.756;2022-07-11T01:01:39;7.87;;;1.60;;
19804;SDS011;10062;51.052;13.756;2022-07-11T01:04:10;3.67;;;1.00;;
19804;SDS011;10062;51.052;13.756;2022-07-11T01:06:43;3.47;;;1.07;;
19804;SDS011;10062;51.052;13.756;2022-07-11T01:09:15;7.17;;;1.30;;
19804;SDS011;10062;51.052;13.756;2022-07-11T01:11:47;5.17;;;1.80;;
19804;SDS011;10062;51.052;13.756;2022-07-11T01:14:18;7.53;;;1.20;;
19804;SDS011;10062;51.052;13.756;2022-07-11T01:16:50;4.67;;;1.20;;
19804;SDS011;10062;51.052;13.756;2022-07-11T01:19:22;5.23;;;1.37;;
19804;SDS011;10062;51.052;13.756;2022-07-11T01:21:56;1.90;;;1.30;;
19804;SDS011;10062;51.052;13.756;2022-07-11T01:24:31;6.70;;;1.60;;
19804;SDS011;10062;51.052;13.756;2022-07-11T01:27:04;3.33;;;1.30;;
19804;SDS011;10062;51.052;13.756;2022-07-11T01:29:36;5.77;;;1.40;;
19804;SDS011;10062;51.052;13.756;2022-07-11T01:32:08;6.87;;;2.10;;
19804;SDS011;10062;51.052;13.756;2022-07-11T01:34:39;4.47;;;1.20;;
19804;SDS011;10062;51.052;13.756;2022-07-11T01:37:11;3.00;;;1.40;;
19804;SDS011;10062;51.052;13.756;2022-07-11T01:39:44;4.57;;;1.30;;
19804;SDS011;10062;51.052;13.756;2022-07-11T01:42:16;3.13;;;1.33;;
19804;SDS011;10062;51.052;13.756;2022-07-11T01:44:47;5.63;;;1.33;;
19804;SDS011;10062;51.052;13.756;2022-07-11T01:47:19;9.13;;;1.27;;
19804;SDS011;10062;51.052;13.756;2022-07-11T01:49:51;3.97;;;1.30;;
19804;SDS011;10062;51.052;13.756;2022-07-11T01:52:22;8.40;;;1.60;;
19804;SDS011;10062;51.052;13.756;2022-07-11T01:54:56;5.03;;;1.33;;
19804;SDS011;10062;51.052;13.756;2022-07-11T01:57:27;2.90;;;1.27;;
19804;SDS011;10062;51.052;13.756;2022-07-11T01:59:59;4.53;;;1.47;;
19804;SDS011;10062;51.052;13.756;2022-07-11T02:02:35;3.50;;;1.23;;
19804;SDS011;10062;51.052;13.756;2022-07-11T02:05:06;5.77;;;1.43;;
19804;SDS011;10062;51.052;13.756;2022-07-11T02:07:38;6.83;;;1.47;;
19804;SDS011;10062;51.052;13.756;2022-07-11T02:10:29;3.57;;;1.33;;
19804;SDS011;10062;51.052;13.756;2022-07-11T02:13:01;4.27;;;1.40;;
19804;SDS011;10062;51.052;13.756;2022-07-11T02:15:33;2.70;;;1.30;;
19804;SDS011;10062;51.052;13.756;2022-07-11T02:18:05;4.90;;;1.60;;
19804;SDS011;10062;51.052;13.756;2022-07-11T02:20:37;3.43;;;1.20;;
19804;SDS011;10062;51.052;13.756;2022-07-11T02:23:09;6.23;;;1.57;;
19804;SDS011;10062;51.052;13.756;2022-07-11T02:25:43;11.33;;;1.50;;
19804;SDS011;10062;51.052;13.756;2022-07-11T02:28:16;5.50;;;1.37;;
19804;SDS011;10062;51.052;13.756;2022-07-11T02:30:47;4.63;;;1.00;;
19804;SDS011;10062;51.052;13.756;2022-07-11T02:33:19;2.90;;;1.40;;
19804;SDS011;10062;51.052;13.756;2022-07-11T02:35:51;2.97;;;1.20;;
19804;SDS011;10062;51.052;13.756;2022-07-11T02:38:22;3.87;;;1.30;;
19804;SDS011;10062;51.052;13.756;2022-07-11T02:40:55;4.63;;;1.73;;
19804;SDS011;10062;51.052;13.756;2022-07-11T02:43:29;4.80;;;1.40;;
19804;SDS011;10062;51.052;13.756;2022-07-11T02:46:00;5.10;;;1.60;;
19804;SDS011;10062;51.052;13.756;2022-07-11T02:48:33;3.70;;;1.50;;
19804;SDS011;10062;51.052;13.756;2022-07-11T02:51:05;5.87;;;1.43;;
19804;SDS011;10062;51.052;13.756;2022-07-11T02:53:36;4.23;;;1.50;;
19804;SDS011;10062;51.052;13.756;2022-07-11T02:56:09;3.10;;;1.60;;
19804;SDS011;10062;51.052;13.756;2022-07-11T02:58:43;3.93;;;1.33;;
19804;SDS011;10062;51.052;13.756;2022-07-11T03:01:14;5.67;;;1.50;;
19804;SDS011;10062;51.052;13.756;2022-07-11T03:03:46;3.90;;;1.43;;
19804;SDS011;10062;51.052;13.756;2022-07-11T03:06:18;4.10;;;1.47;;
19804;SDS011;10062;51.052;13.756;2022-07-11T03:08:49;4.37;;;1.30;;
19804;SDS011;10062;51.052;13.756;2022-07-11T03:11:22;6.87;;;1.50;;
19804;SDS011;10062;51.052;13.756;2022-07-11T03:13:54;8.13;;;1.80;;
19804;SDS011;10062;51.052;13.756;2022-07-11T03:16:26;5.57;;;1.60;;
19804;SDS011;10062;51.052;13.756;2022-07-11T03:18:58;5.33;;;1.53;;
19804;SDS011;10062;51.052;13.756;2022-07-11T03:21:29;5.37;;;1.30;;
19804;SDS011;10062;51.052;13.756;2022-07-11T03:24:01;3.17;;;1.10;;
19804;SDS011;10062;51.052;13.756;2022-07-11T03:26:35;8.00;;;1.60;;
19804;SDS011;10062;51.052;13.756;2022-07-11T03:29:06;6.90;;;1.70;;
19804;SDS011;10062;51.052;13.756;2022-07-11T03:31:38;4.70;;;1.40;;
19804;SDS011;10062;51.052;13.756;2022-07-11T03:34:10;6.87;;;1.40;;
19804;SDS011;10062;51.052;13.756;2022-07-11T03:36:42;4.63;;;1.37;;
19804;SDS011;10062;51.052;13.756;2022-07-11T03:39:16;3.87;;;1.50;;
19804;SDS011;10062;51.052;13.756;2022-07-11T03:41:49;6.73;;;1.50;;
19804;SDS011;10062;51.052;13.756;2022-07-11T03:44:20;8.27;;;1.70;;
19804;SDS011;10062;51.052;13.756;2022-07-11T03:46:52;6.93;;;1.67;;
19804;SDS011;10062;51.052;13.756;2022-07-11T03:49:24;3.43;;;1.40;;
19804;SDS011;10062;51.052;13.756;2022-07-11T03:51:55;5.80;;;1.90;;
19804;SDS011;10062;51.052;13.756;2022-07-11T03:54:27;2.30;;;1.20;;
19804;SDS011;10062;51.052;13.756;2022-07-11T03:57:00;8.10;;;1.87;;
19804;SDS011;10062;51.052;13.756;2022-07-11T03:59:32;5.10;;;1.37;;
19804;SDS011;10062;51.052;13.756;2022-07-11T04:02:04;10.07;;;2.10;;
19804;SDS011;10062;51.052;13.756;2022-07-11T04:04:36;3.57;;;1.27;;
19804;SDS011;10062;51.052;13.756;2022-07-11T04:07:07;9.40;;;1.93;;
19804;SDS011;10062;51.052;13.756;2022-07-11T04:09:39;5.10;;;1.10;;
19804;SDS011;10062;51.052;13.756;2022-07-11T04:12:12;8.17;;;1.47;;
19804;SDS011;10062;51.052;13.756;2022-07-11T04:14:44;4.43;;;1.80;;
19804;SDS011;10062;51.052;13.756;2022-07-11T04:17:15;5.47;;;1.50;;
19804;SDS011;10062;51.052;13.756;2022-07-11T04:19:47;9.87;;;1.90;;
19804;SDS011;10062;51.052;13.756;2022-07-11T04:22:19;7.10;;;1.70;;
19804;SDS011;10062;51.052;13.756;2022-07-11T04:24:50;4.57;;;1.40;;
19804;SDS011;10062;51.052;13.756;2022-07-11T04:27:24;6.77;;;1.63;;
19804;SDS011;10062;51.052;13.756;2022-07-11T04:29:56;6.20;;;1.57;;
19804;SDS011;10062;51.052;13.756;2022-07-11T04:32:27;4.07;;;1.40;;
19804;SDS011;10062;51.052;13.756;2022-07-11T04:34:59;5.53;;;1.50;;
19804;SDS011;10062;51.052;13.756;2022-07-11T04:37:31;6.50;;;1.83;;
19804;SDS011;10062;51.052;13.756;2022-07-11T04:40:03;4.30;;;1.60;;
19804;SDS011;10062;51.052;13.756;2022-07-11T04:42:37;10.17;;;2.70;;
19804;SDS011;10062;51.052;13.756;2022-07-11T04:45:09;5.30;;;2.33;;
19804;SDS011;10062;51.052;13.756;2022-07-11T04:47:41;8.20;;;3.27;;
19804;SDS011;10062;51.052;13.756;2022-07-11T04:50:12;6.27;;;3.27;;
19804;SDS011;10062;51.052;13.756;2022-07-11T04:52:44;11.27;;;2.20;;
19804;SDS011;10062;51.052;13.756;2022-07-11T04:55:16;4.97;;;1.63;;
19804;SDS011;10062;51.052;13.756;2022-07-11T04:57:49;5.20;;;1.80;;
19804;SDS011;10062;51.052;13.756;2022-07-11T05:00:21;5.93;;;1.70;;
19804;SDS011;10062;51.052;13.756;2022-07-11T05:02:52;7.20;;;1.70;;
19804;SDS011;10062;51.052;13.756;2022-07-11T05:05:25;6.27;;;2.03;;
19804;SDS011;10062;51.052;13.756;2022-07-11T05:07:57;7.07;;;1.80;;
19804;SDS011;10062;51.052;13.756;2022-07-11T05:10:29;3.63;;;1.43;;
19804;SDS011;10062;51.052;13.756;2022-07-11T05:13:04;9.27;;;1.40;;
19804;SDS011;10062;51.052;13.756;2022-07-11T05:15:36;6.23;;;1.87;;
19804;SDS011;10062;51.052;13.756;2022-07-11T05:18:09;6.50;;;1.70;;
19804;SDS011;10062;51.052;13.756;2022-07-11T05:20:41;11.03;;;1.87;;
19804;SDS011;10062;51.052;13.756;2022-07-11T05:23:13;4.77;;;1.50;;
19804;SDS011;10062;51.052;13.756;2022-07-11T05:25:44;5.77;;;1.27;;
19804;SDS011;10062;51.052;13.756;2022-07-11T05:28:17;5.77;;;1.60;;
19804;SDS011;10062;51.052;13.756;2022-07-11T05:30:49;6.60;;;1.70;;
19804;SDS011;10062;51.052;13.756;2022-07-11T05:33:21;5.43;;;1.50;;
19804;SDS011;10062;51.052;13.756;2022-07-11T05:35:52;6.60;;;1.43;;
19804;SDS011;10062;51.052;13.756;2022-07-11T05:38:24;9.40;;;2.57;;
19804;SDS011;10062;51.052;13.756;2022-07-11T05:40:56;8.40;;;2.10;;
19804;SDS011;10062;51.052;13.756;2022-07-11T05:43:31;7.53;;;1.70;;
19804;SDS011;10062;51.052;13.756;2022-07-11T05:46:05;6.87;;;1.70;;
19804;SDS011;10062;51.052;13.756;2022-07-11T05:48:37;3.63;;;1.57;;
19804;SDS011;10062;51.052;13.756;2022-07-11T05:51:09;7.80;;;2.00;;
19804;SDS011;10062;51.052;13.756;2022-07-11T05:53:41;6.03;;;1.50;;
19804;SDS011;10062;51.052;13.756;2022-07-11T05:56:13;6.33;;;2.33;;
19804;SDS011;10062;51.052;13.756;2022-07-11T05:58:46;5.57;;;1.93;;
19804;SDS011;10062;51.052;13.756;2022-07-11T06:01:17;6.33;;;2.10;;
19804;SDS011;10062;51.052;13.756;2022-07-11T06:03:49;7.23;;;1.90;;
19804;SDS011;10062;51.052;13.756;2022-07-11T06:06:21;7.10;;;1.77;;
19804;SDS011;10062;51.052;13.756;2022-07-11T06:08:53;8.20;;;2.13;;
19804;SDS011;10062;51.052;13.756;2022-07-11T06:11:23;8.07;;;1.80;;
19804;SDS011;10062;51.052;13.756;2022-07-11T06:13:57;7.70;;;1.70;;
19804;SDS011;10062;51.052;13.756;2022-07-11T06:16:29;4.33;;;1.70;;
19804;SDS011;10062;51.052;13.756;2022-07-11T06:19:00;12.03;;;3.10;;
19804;SDS011;10062;51.052;13.756;2022-07-11T06:21:33;7.40;;;2.70;;
19804;SDS011;10062;51.052;13.756;2022-07-11T06:24:04;6.30;;;1.50;;
19804;SDS011;10062;51.052;13.756;2022-07-11T06:26:36;6.20;;;2.07;;
19804;SDS011;10062;51.052;13.756;2022-07-11T06:29:10;6.40;;;1.70;;
19804;SDS011;10062;51.052;13.756;2022-07-11T06:31:41;5.57;;;1.53;;
19804;SDS011;10062;51.052;13.756;2022-07-11T06:34:13;8.30;;;1.80;;
19804;SDS011;10062;51.052;13.756;2022-07-11T06:36:45;6.90;;;2.00;;
19804;SDS011;10062;51.052;13.756;2022-07-11T06:39:16;6.20;;;1.30;;
19804;SDS011;10062;51.052;13.756;2022-07-11T06:41:48;10.30;;;3.83;;
19804;SDS011;10062;51.052;13.756;2022-07-11T06:44:21;10.40;;;2.13;;
19804;SDS011;10062;51.052;13.756;2022-07-11T06:46:53;8.63;;;2.83;;
19804;SDS011;10062;51.052;13.756;2022-07-11T06:49:24;9.40;;;2.37;;
19804;SDS011;10062;51.052;13.756;2022-07-11T06:51:56;5.13;;;2.13;;
19804;SDS011;10062;51.052;13.756;2022-07-11T06:54:28;8.83;;;2.47;;
19804;SDS011;10062;51.052;13.756;2022-07-11T06:56:59;6.07;;;1.80;;
19804;SDS011;10062;51.052;13.756;2022-07-11T06:59:32;9.20;;;1.90;;
19804;SDS011;10062;51.052;13.756;2022-07-11T07:02:04;13.93;;;1.80;;
19804;SDS011;10062;51.052;13.756;2022-07-11T07:04:36;5.47;;;1.60;;
19804;SDS011;10062;51.052;13.756;2022-07-11T07:07:08;7.00;;;1.50;;
19804;SDS011;10062;51.052;13.756;2022-07-11T07:09:39;13.70;;;2.03;;
19804;SDS011;10062;51.052;13.756;2022-07-11T07:12:12;9.13;;;2.17;;
19804;SDS011;10062;51.052;13.756;2022-07-11T07:14:46;3.50;;;1.40;;
19804;SDS011;10062;51.052;13.756;2022-07-11T07:17:18;9.27;;;2.00;;
19804;SDS011;10062;51.052;13.756;2022-07-11T07:19:49;4.50;;;1.33;;
19804;SDS011;10062;51.052;13.756;2022-07-11T07:22:21;6.73;;;1.50;;
19804;SDS011;10062;51.052;13.756;2022-07-11T07:24:53;3.77;;;1.47;;
19804;SDS011;10062;51.052;13.756;2022-07-11T07:27:24;9.00;;;1.93;;
19804;SDS011;10062;51.052;13.756;2022-07-11T07:29:58;7.63;;;1.50;;
19804;SDS011;10062;51.052;13.756;2022-07-11T07:32:29;7.67;;;1.60;;
19804;SDS011;10062;51.052;13.756;2022-07-11T07:35:01;4.13;;;1.20;;
19804;SDS011;10062;51.052;13.756;2022-07-11T07:37:33;11.20;;;1.70;;
19804;SDS011;10062;51.052;13.756;2022-07-11T07:40:05;6.13;;;2.20;;
19804;SDS011;10062;51.052;13.756;2022-07-11T07:42:37;5.93;;;1.23;;
19804;SDS011;10062;51.052;13.756;2022-07-11T07:45:10;7.57;;;1.30;;
19804;SDS011;10062;51.052;13.756;2022-07-11T07:47:42;3.80;;;1.00;;
19804;SDS011;10062;51.052;13.756;2022-07-11T07:50:14;8.17;;;1.23;;
19804;SDS011;10062;51.052;13.756;2022-07-11T07:52:45;4.73;;;1.10;;
19804;SDS011;10062;51.052;13.756;2022-07-11T07:55:17;3.93;;;1.30;;
19804;SDS011;10062;51.052;13.756;2022-07-11T07:57:49;2.57;;;1.03;;
19804;SDS011;10062;51.052;13.756;2022-07-11T08:00:22;6.63;;;1.27;;
19804;SDS011;10062;51.052;13.756;2022-07-11T08:03:11;7.07;;;1.40;;
19804;SDS011;10062;51.052;13.756;2022-07-11T08:05:42;7.87;;;1.40;;
19804;SDS011;10062;51.052;13.756;2022-07-11T08:08:14;4.43;;;1.10;;
19804;SDS011;10062;51.052;13.756;2022-07-11T08:10:46;3.77;;;1.00;;
19804;SDS011;10062;51.052;13.756;2022-07-11T08:13:17;3.70;;;1.00;;
19804;SDS011;10062;51.052;13.756;2022-07-11T08:15:51;6.37;;;1.27;;
19804;SDS011;10062;51.052;13.756;2022-07-11T08:18:22;5.47;;;1.33;;
19804;SDS011;10062;51.052;13.756;2022-07-11T08:20:54;10.03;;;1.50;;
19804;SDS011;10062;51.052;13.756;2022-07-11T08:23:27;4.33;;;1.40;;
19804;SDS011;10062;51.052;13.756;2022-07-11T08:25:58;6.30;;;1.60;;
19804;SDS011;10062;51.052;13.756;2022-07-11T08:28:30;5.23;;;1.47;;
19804;SDS011;10062;51.052;13.756;2022-07-11T08:31:03;7.30;;;1.23;;
19804;SDS011;10062;51.052;13.756;2022-07-11T08:33:35;6.23;;;1.30;;
19804;SDS011;10062;51.052;13.756;2022-07-11T08:36:07;6.13;;;1.30;;
19804;SDS011;10062;51.052;13.756;2022-07-11T08:38:39;4.20;;;1.13;;
19804;SDS011;10062;51.052;13.756;2022-07-11T08:41:13;4.83;;;1.03;;
19804;SDS011;10062;51.052;13.756;2022-07-11T08:43:46;8.33;;;1.53;;
19804;SDS011;10062;51.052;13.756;2022-07-11T08:46:19;7.57;;;1.80;;
19804;SDS011;10062;51.052;13.756;2022-07-11T08:48:52;6.93;;;1.30;;
19804;SDS011;10062;51.052;13.756;2022-07-11T08:51:24;6.20;;;1.03;;
19804;SDS011;10062;51.052;13.756;2022-07-11T08:53:57;3.30;;;1.30;;
19804;SDS011;10062;51.052;13.756;2022-07-11T08:56:29;4.23;;;1.03;;
19804;SDS011;10062;51.052;13.756;2022-07-11T08:59:02;7.90;;;1.73;;
19804;SDS011;10062;51.052;13.756;2022-07-11T09:01:35;4.03;;;1.20;;
19804;SDS011;10062;51.052;13.756;2022-07-11T09:04:11;3.00;;;1.13;;
19804;SDS011;10062;51.052;13.756;2022-07-11T09:06:44;5.13;;;1.60;;
19804;SDS011;10062;51.052;13.756;2022-07-11T09:09:16;5.30;;;2.27;;
19804;SDS011;10062;51.052;13.756;2022-07-11T09:11:48;8.20;;;2.80;;
19804;SDS011;10062;51.052;13.756;2022-07-11T09:14:22;3.60;;;1.67;;
19804;SDS011;10062;51.052;13.756;2022-07-11T09:16:56;3.80;;;1.03;;
19804;SDS011;10062;51.052;13.756;2022-07-11T09:19:30;2.27;;;0.97;;
19804;SDS011;10062;51.052;13.756;2022-07-11T09:22:04;2.50;;;1.00;;
19804;SDS011;10062;51.052;13.756;2022-07-11T09:24:57;3.80;;;0.90;;
19804;SDS011;10062;51.052;13.756;2022-07-11T09:27:48;4.00;;;1.20;;
19804;SDS011;10062;51.052;13.756;2022-07-11T09:30:22;4.23;;;0.87;;
19804;SDS011;10062;51.052;13.756;2022-07-11T09:32:58;4.03;;;1.00;;
19804;SDS011;10062;51.052;13.756;2022-07-11T09:35:31;3.93;;;0.83;;
19804;SDS011;10062;51.052;13.756;2022-07-11T09:38:05;7.53;;;3.87;;
19804;SDS011;10062;51.052;13.756;2022-07-11T09:40:42;6.07;;;1.93;;
19804;SDS011;10062;51.052;13.756;2022-07-11T09:43:15;4.30;;;1.13;;
19804;SDS011;10062;51.052;13.756;2022-07-11T09:46:03;4.77;;;1.00;;
19804;SDS011;10062;51.052;13.756;2022-07-11T09:48:37;4.83;;;1.90;;
19804;SDS011;10062;51.052;13.756;2022-07-11T09:51:09;6.17;;;0.97;;
19804;SDS011;10062;51.052;13.756;2022-07-11T09:53:54;4.97;;;1.10;;
19804;SDS011;10062;51.052;13.756;2022-07-11T09:56:26;5.47;;;1.10;;
19804;SDS011;10062;51.052;13.756;2022-07-11T09:59:05;2.60;;;0.80;;
19804;SDS011;10062;51.052;13.756;2022-07-11T10:01:37;2.57;;;0.87;;
19804;SDS011;10062;51.052;13.756;2022-07-11T10:04:11;3.17;;;0.77;;
19804;SDS011;10062;51.052;13.756;2022-07-11T10:06:43;5.50;;;1.10;;
19804;SDS011;10062;51.052;13.756;2022-07-11T10:09:14;6.25;;;1.20;;
19804;SDS011;10062;51.052;13.756;2022-07-11T10:11:46;3.83;;;1.20;;
19804;SDS011;10062;51.052;13.756;2022-07-11T10:14:18;2.38;;;0.80;;
19804;SDS011;10062;51.052;13.756;2022-07-11T10:16:52;5.10;;;0.82;;
19804;SDS011;10062;51.052;13.756;2022-07-11T10:19:33;4.03;;;0.57;;
19804;SDS011;10062;51.052;13.756;2022-07-11T10:22:15;3.95;;;0.70;;
19804;SDS011;10062;51.052;13.756;2022-07-11T10:24:53;5.22;;;0.70;;
19804;SDS011;10062;51.052;13.756;2022-07-11T10:27:29;3.28;;;1.13;;
19804;SDS011;10062;51.052;13.756;2022-07-11T10:30:07;1.33;;;0.57;;
19804;SDS011;10062;51.052;13.756;2022-07-11T10:32:57;1.65;;;0.63;;
19804;SDS011;10062;51.052;13.756;2022-07-11T10:35:30;2.97;;;0.70;;
19804;SDS011;10062;51.052;13.756;2022-07-11T10:38:04;2.50;;;0.60;;
19804;SDS011;10062;51.052;13.756;2022-07-11T10:40:40;2.22;;;0.40;;
19804;SDS011;10062;51.052;13.756;2022-07-11T10:43:14;5.10;;;1.15;;
19804;SDS011;10062;51.052;13.756;2022-07-11T10:45:53;2.70;;;0.57;;
19804;SDS011;10062;51.052;13.756;2022-07-11T10:48:27;2.28;;;0.65;;
19804;SDS011;10062;51.052;13.756;2022-07-11T10:51:04;2.65;;;0.60;;
19804;SDS011;10062;51.052;13.756;2022-07-11T10:53:48;2.35;;;0.60;;
19804;SDS011;10062;51.052;13.756;2022-07-11T10:56:27;3.85;;;0.80;;
19804;SDS011;10062;51.052;13.756;2022-07-11T10:59:13;3.90;;;0.80;;
19804;SDS011;10062;51.052;13.756;2022-07-11T11:02:02;2.58;;;0.70;;
19804;SDS011;10062;51.052;13.756;2022-07-11T11:04:45;1.52;;;0.52;;
19804;SDS011;10062;51.052;13.756;2022-07-11T11:07:36;3.20;;;0.70;;
19804;SDS011;10062;51.052;13.756;2022-07-11T11:13:24;2.55;;;0.70;;
19804;SDS011;10062;51.052;13.756;2022-07-11T11:15:57;1.88;;;0.60;;
19804;SDS011;10062;51.052;13.756;2022-07-11T11:18:33;0.93;;;0.57;;
19804;SDS011;10062;51.052;13.756;2022-07-11T11:21:16;1.50;;;0.68;;
19804;SDS011;10062;51.052;13.756;2022-07-11T11:24:08;3.15;;;1.23;;
19804;SDS011;10062;51.052;13.756;2022-07-11T11:26:44;2.00;;;0.70;;
19804;SDS011;10062;51.052;13.756;2022-07-11T11:29:19;1.15;;;0.40;;
19804;SDS011;10062;51.052;13.756;2022-07-11T11:31:56;2.95;;;0.55;;
19804;SDS011;10062;51.052;13.756;2022-07-11T11:34:29;1.55;;;0.65;;
19804;SDS011;10062;51.052;13.756;2022-07-11T11:37:04;2.25;;;0.60;;
19804;SDS011;10062;51.052;13.756;2022-07-11T11:39:39;1.85;;;0.50;;
19804;SDS011;10062;51.052;13.756;2022-07-11T11:42:12;3.13;;;0.63;;
19804;SDS011;10062;51.052;13.756;2022-07-11T11:44:49;2.28;;;0.60;;
19804;SDS011;10062;51.052;13.756;2022-07-11T11:47:22;2.22;;;0.40;;
19804;SDS011;10062;51.052;13.756;2022-07-11T11:49:55;1.15;;;0.60;;
19804;SDS011;10062;51.052;13.756;2022-07-11T11:52:27;3.83;;;0.75;;
19804;SDS011;10062;51.052;13.756;2022-07-11T11:55:00;2.85;;;0.52;;
19804;SDS011;10062;51.052;13.756;2022-07-11T11:57:33;2.63;;;0.50;;
19804;SDS011;10062;51.052;13.756;2022-07-11T12:00:19;2.63;;;0.65;;
19804;SDS011;10062;51.052;13.756;2022-07-11T12:02:52;1.13;;;0.57;;
19804;SDS011;10062;51.052;13.756;2022-07-11T12:05:24;2.40;;;0.60;;
19804;SDS011;10062;51.052;13.756;2022-07-11T12:07:55;1.33;;;0.50;;
19804;SDS011;10062;51.052;13.756;2022-07-11T12:10:28;1.52;;;0.60;;
19804;SDS011;10062;51.052;13.756;2022-07-11T12:13:01;3.53;;;0.60;;
19804;SDS011;10062;51.052;13.756;2022-07-11T12:15:33;1.80;;;0.40;;
19804;SDS011;10062;51.052;13.756;2022-07-11T12:18:25;1.20;;;0.47;;
19804;SDS011;10062;51.052;13.756;2022-07-11T12:20:57;1.90;;;0.70;;
19804;SDS011;10062;51.052;13.756;2022-07-11T12:23:40;0.95;;;0.47;;
19804;SDS011;10062;51.052;13.756;2022-07-11T12:26:13;4.70;;;0.68;;
19804;SDS011;10062;51.052;13.756;2022-07-11T12:31:40;6.63;;;3.35;;
19804;SDS011;10062;51.052;13.756;2022-07-11T12:34:13;4.13;;;1.40;;
19804;SDS011;10062;51.052;13.756;2022-07-11T12:36:46;3.40;;;0.68;;
19804;SDS011;10062;51.052;13.756;2022-07-11T12:39:21;3.03;;;0.60;;
19804;SDS011;10062;51.052;13.756;2022-07-11T12:41:57;4.28;;;0.60;;
19804;SDS011;10062;51.052;13.756;2022-07-11T12:44:30;2.05;;;0.50;;
19804;SDS011;10062;51.052;13.756;2022-07-11T12:47:22;1.92;;;0.80;;
19804;SDS011;10062;51.052;13.756;2022-07-11T12:49:55;1.65;;;0.65;;
19804;SDS011;10062;51.052;13.756;2022-07-11T12:52:35;1.27;;;0.40;;
19804;SDS011;10062;51.052;13.756;2022-07-11T12:55:07;2.45;;;0.47;;
19804;SDS011;10062;51.052;13.756;2022-07-11T12:57:42;1.13;;;0.60;;
19804;SDS011;10062;51.052;13.756;2022-07-11T13:00:14;3.50;;;0.60;;
19804;SDS011;10062;51.052;13.756;2022-07-11T13:02:50;2.38;;;0.60;;
19804;SDS011;10062;51.052;13.756;2022-07-11T13:05:22;3.72;;;0.60;;
19804;SDS011;10062;51.052;13.756;2022-07-11T13:07:54;1.23;;;0.50;;
19804;SDS011;10062;51.052;13.756;2022-07-11T13:10:43;1.73;;;0.57;;
19804;SDS011;10062;51.052;13.756;2022-07-11T13:13:31;3.33;;;0.50;;
19804;SDS011;10062;51.052;13.756;2022-07-11T13:16:04;3.08;;;0.50;;
19804;SDS011;10062;51.052;13.756;2022-07-11T13:18:37;1.75;;;0.60;;
19804;SDS011;10062;51.052;13.756;2022-07-11T13:21:09;2.03;;;0.55;;
19804;SDS011;10062;51.052;13.756;2022-07-11T13:23:41;1.27;;;0.63;;
19804;SDS011;10062;51.052;13.756;2022-07-11T13:26:12;1.95;;;0.40;;
19804;SDS011;10062;51.052;13.756;2022-07-11T13:28:46;3.72;;;0.80;;
19804;SDS011;10062;51.052;13.756;2022-07-11T13:31:18;1.70;;;0.50;;
19804;SDS011;10062;51.052;13.756;2022-07-11T13:33:49;4.00;;;0.63;;
19804;SDS011;10062;51.052;13.756;2022-07-11T13:36:21;1.75;;;0.60;;
19804;SDS011;10062;51.052;13.756;2022-07-11T13:38:53;2.90;;;0.68;;
19804;SDS011;10062;51.052;13.756;2022-07-11T13:41:24;1.85;;;0.40;;
19804;SDS011;10062;51.052;13.756;2022-07-11T13:43:58;1.98;;;0.50;;
19804;SDS011;10062;51.052;13.756;2022-07-11T13:46:29;1.02;;;0.43;;
19804;SDS011;10062;51.052;13.756;2022-07-11T13:49:01;1.35;;;0.60;;
19804;SDS011;10062;51.052;13.756;2022-07-11T13:51:32;1.75;;;0.63;;
19804;SDS011;10062;51.052;13.756;2022-07-11T13:54:04;7.80;;;0.82;;
19804;SDS011;10062;51.052;13.756;2022-07-11T13:56:36;1.38;;;0.47;;
19804;SDS011;10062;51.052;13.756;2022-07-11T13:59:09;1.55;;;0.55;;
19804;SDS011;10062;51.052;13.756;2022-07-11T14:01:41;1.35;;;0.45;;
19804;SDS011;10062;51.052;13.756;2022-07-11T14:04:12;3.80;;;0.77;;
19804;SDS011;10062;51.052;13.756;2022-07-11T14:06:44;3.30;;;0.73;;
19804;SDS011;10062;51.052;13.756;2022-07-11T14:09:16;1.85;;;0.60;;
19804;SDS011;10062;51.052;13.756;2022-07-11T14:11:47;1.92;;;0.70;;
19804;SDS011;10062;51.052;13.756;2022-07-11T14:14:21;1.85;;;0.60;;
19804;SDS011;10062;51.052;13.756;2022-07-11T14:16:52;1.83;;;0.63;;
19804;SDS011;10062;51.052;13.756;2022-07-11T14:19:24;3.22;;;0.98;;
19804;SDS011;10062;51.052;13.756;2022-07-11T14:21:56;2.95;;;0.43;;
19804;SDS011;10062;51.052;13.756;2022-07-11T14:24:28;7.13;;;0.90;;
19804;SDS011;10062;51.052;13.756;2022-07-11T14:27:00;1.02;;;0.50;;
19804;SDS011;10062;51.052;13.756;2022-07-11T14:29:33;0.63;;;0.40;;
19804;SDS011;10062;51.052;13.756;2022-07-11T14:32:05;2.17;;;0.50;;
19804;SDS011;10062;51.052;13.756;2022-07-11T14:34:37;1.90;;;0.65;;
19804;SDS011;10062;51.052;13.756;2022-07-11T14:37:09;3.15;;;0.57;;
19804;SDS011;10062;51.052;13.756;2022-07-11T14:39:41;1.50;;;0.47;;
19804;SDS011;10062;51.052;13.756;2022-07-11T14:42:12;2.22;;;0.52;;
19804;SDS011;10062;51.052;13.756;2022-07-11T14:44:45;3.50;;;0.35;;
19804;SDS011;10062;51.052;13.756;2022-07-11T14:47:20;4.43;;;0.70;;
19804;SDS011;10062;51.052;13.756;2022-07-11T14:49:51;2.08;;;0.60;;
19804;SDS011;10062;51.052;13.756;2022-07-11T14:52:23;1.17;;;0.40;;
19804;SDS011;10062;51.052;13.756;2022-07-11T14:54:55;1.73;;;0.80;;
19804;SDS011;10062;51.052;13.756;2022-07-11T14:57:26;1.20;;;0.50;;
19804;SDS011;10062;51.052;13.756;2022-07-11T14:59:59;1.23;;;0.60;;
19804;SDS011;10062;51.052;13.756;2022-07-11T15:02:31;3.00;;;0.60;;
19804;SDS011;10062;51.052;13.756;2022-07-11T15:05:21;1.25;;;0.52;;
19804;SDS011;10062;51.052;13.756;2022-07-11T15:07:52;2.35;;;0.60;;
19804;SDS011;10062;51.052;13.756;2022-07-11T15:10:42;1.70;;;0.47;;
19804;SDS011;10062;51.052;13.756;2022-07-11T15:13:31;1.85;;;0.80;;
19804;SDS011;10062;51.052;13.756;2022-07-11T15:16:04;2.28;;;0.80;;